Time;durP1;ratioP1;P1;durP2;ratioP2;P2;SDS_P1;SDS_P2;PMS_P1;PMS_P2;Temp;Humidity;BMP_temperature;BMP_pressure;BME280_temperature;BME280_humidity;BME280_pressure;Samples;Min_cycle;Max_cycle;Signal;HPM_P1;HPM_P2
2022/11/19 00:00:46;;;;;;;1.05;0.95;;;;;;;0.82;85.69;100756.97;4983319;28;20074;-70
2022/11/19 00:03:16;;;;;;;2.67;2.10;;;;;;;0.75;86.00;100762.66;5002050;28;20495;-70
2022/11/19 00:05:43;;;;;;;9.32;1.77;;;;;;;0.77;86.22;100752.53;5001069;28;20038;-70
2022/11/19 00:08:11;;;;;;;1.90;1.70;;;;;;;0.91;85.70;100753.38;5003307;28;20546;-70
2022/11/19 00:10:37;;;;;;;4.10;1.15;;;;;;;0.74;86.01;100753.09;4987511;28;20030;-70
2022/11/19 00:13:05;;;;;;;3.15;1.70;;;;;;;0.81;85.82;100753.53;5017899;28;20038;-70
2022/11/19 00:15:33;;;;;;;1.88;1.45;;;;;;;0.71;85.82;100759.00;5000591;28;20128;-70
2022/11/19 00:17:59;;;;;;;2.35;1.75;;;;;;;0.74;86.41;100747.00;5003192;28;20030;-70
2022/11/19 00:20:24;;;;;;;1.50;1.40;;;;;;;0.70;86.14;100744.16;4993762;28;20030;-70
2022/11/19 00:22:55;;;;;;;3.03;1.60;;;;;;;0.70;86.20;100746.81;5003854;28;20062;-70
2022/11/19 00:25:22;;;;;;;6.30;2.03;;;;;;;0.66;86.22;100753.75;5015937;28;20153;-70
2022/11/19 00:27:48;;;;;;;2.42;1.65;;;;;;;0.75;86.51;100756.56;5000604;28;20385;-70
2022/11/19 00:30:13;;;;;;;1.20;1.10;;;;;;;0.64;86.61;100747.19;5009356;28;20089;-70
2022/11/19 00:32:39;;;;;;;3.20;1.58;;;;;;;0.64;86.28;100747.19;5004500;28;20391;-70
2022/11/19 00:35:05;;;;;;;3.22;1.90;;;;;;;0.58;86.80;100749.09;5002454;28;20117;-70
2022/11/19 00:37:31;;;;;;;1.73;1.30;;;;;;;0.53;86.67;100745.72;5001312;28;20030;-70
2022/11/19 00:39:56;;;;;;;1.80;1.20;;;;;;;0.51;86.95;100742.56;5007082;28;20029;-70
2022/11/19 00:42:22;;;;;;;2.80;1.17;;;;;;;0.47;86.61;100752.16;5009081;28;20506;-70
2022/11/19 00:44:48;;;;;;;1.30;1.05;;;;;;;0.57;86.54;100749.38;5005918;28;20026;-70
2022/11/19 00:47:14;;;;;;;2.15;1.67;;;;;;;0.52;86.76;100746.81;4998242;28;20088;-70
2022/11/19 00:49:40;;;;;;;1.90;1.75;;;;;;;0.45;86.57;100757.75;5005881;28;20049;-70
2022/11/19 00:52:05;;;;;;;3.78;1.73;;;;;;;0.46;86.87;100753.25;5003748;28;20069;-70
2022/11/19 00:54:31;;;;;;;1.70;1.52;;;;;;;0.56;86.71;100753.13;5000881;28;20076;-70
2022/11/19 00:56:56;;;;;;;2.92;1.58;;;;;;;0.53;86.69;100762.41;5016406;28;20042;-70
2022/11/19 00:59:22;;;;;;;3.45;1.52;;;;;;;0.47;87.07;100766.19;5005544;28;20111;-70
2022/11/19 01:01:47;;;;;;;6.13;2.10;;;;;;;0.35;86.49;100773.75;5008524;28;20487;-70
2022/11/19 01:04:13;;;;;;;3.38;1.92;;;;;;;0.43;86.85;100780.28;5001116;28;20406;-70
2022/11/19 01:06:38;;;;;;;1.55;1.40;;;;;;;0.33;87.17;100783.84;5015704;28;20080;-70
2022/11/19 01:09:04;;;;;;;2.65;1.40;;;;;;;0.26;86.65;100788.69;5007242;28;20085;-70
2022/11/19 01:11:32;;;;;;;2.63;1.80;;;;;;;0.21;87.23;100788.78;5000139;28;20038;-70
2022/11/19 01:13:59;;;;;;;4.32;1.50;;;;;;;0.22;86.74;100798.28;5018341;28;20045;-70
2022/11/19 01:16:30;;;;;;;1.00;1.00;;;;;;;0.35;86.67;100797.59;5014373;28;20037;-70
2022/11/19 01:18:56;;;;;;;3.47;1.42;;;;;;;0.31;86.60;100801.88;4994843;28;20684;-70
2022/11/19 01:21:23;;;;;;;2.33;1.85;;;;;;;0.15;86.54;100791.75;5003831;28;20030;-70
2022/11/19 01:23:49;;;;;;;3.30;1.88;;;;;;;0.15;87.28;100789.09;5007086;28;20030;-70
2022/11/19 01:26:15;;;;;;;1.83;1.67;;;;;;;0.09;87.06;100787.56;5019248;28;20583;-70
2022/11/19 01:28:41;;;;;;;0.95;0.88;;;;;;;0.07;87.18;100785.22;5002999;28;20034;-70
2022/11/19 01:31:09;;;;;;;3.35;1.60;;;;;;;0.04;87.03;100779.72;5005675;28;20038;-70
2022/11/19 01:33:35;;;;;;;2.53;1.58;;;;;;;-0.06;87.59;100786.66;4999429;28;20043;-70
2022/11/19 01:36:04;;;;;;;7.15;2.15;;;;;;;-0.03;87.31;100790.63;5010499;28;20040;-70
2022/11/19 01:38:50;;;;;;;3.35;1.92;;;;;;;-0.09;87.65;100791.72;4999564;28;20042;-70
2022/11/19 01:41:24;;;;;;;2.10;1.63;;;;;;;-0.05;87.80;100796.19;4971581;28;20066;-70
2022/11/19 01:44:01;;;;;;;5.85;2.38;;;;;;;-0.11;87.48;100794.66;4956639;28;20141;-70
2022/11/19 01:46:29;;;;;;;1.80;1.60;;;;;;;-0.09;87.50;100789.09;4964138;28;20054;-70
2022/11/19 01:49:01;;;;;;;3.90;1.67;;;;;;;-0.10;87.35;100790.94;4955026;28;20431;-70
2022/11/19 01:51:36;;;;;;;1.60;1.50;;;;;;;-0.09;87.70;100792.53;4971199;28;20053;-70
2022/11/19 01:54:13;;;;;;;2.80;1.70;;;;;;;-0.14;87.39;100795.25;4970226;28;20070;-70
2022/11/19 01:56:38;;;;;;;3.20;1.63;;;;;;;-0.08;87.57;100801.25;4972009;28;20035;-70
2022/11/19 01:59:30;;;;;;;3.70;2.40;;;;;;;0.06;86.97;100801.38;4954919;28;20066;-70
2022/11/19 02:01:55;;;;;;;;;;;;;;;0.03;86.71;100809.88;4954726;23;20070;-64
2022/11/19 02:04:22;;;;;;;1.52;1.05;;;;;;;-0.07;86.51;100811.56;5002331;28;19922;-64
2022/11/19 02:06:48;;;;;;;1.33;1.13;;;;;;;-0.17;86.59;100810.84;5009997;28;20394;-64
2022/11/19 02:09:14;;;;;;;3.00;1.45;;;;;;;-0.07;87.03;100821.34;5011096;28;20037;-64
2022/11/19 02:11:51;;;;;;;4.38;1.63;;;;;;;-0.03;86.51;100825.81;5000105;28;20034;-64
2022/11/19 02:14:54;;;;;;;2.28;1.83;;;;;;;-0.10;86.82;100817.41;4993430;28;20165;-64
2022/11/19 02:17:57;;;;;;;3.78;1.45;;;;;;;-0.20;86.81;100816.72;4990893;28;20394;-64
2022/11/19 02:21:12;;;;;;;4.93;2.28;;;;;;;-0.24;87.24;100815.69;4991444;28;20038;-64
2022/11/19 02:24:16;;;;;;;2.05;1.90;;;;;;;-0.30;87.18;100822.91;4990542;28;20514;-64
2022/11/19 02:27:00;;;;;;;4.78;1.17;;;;;;;-0.39;87.28;100821.13;4983371;28;20145;-62
2022/11/19 02:29:32;;;;;;;1.13;1.02;;;;;;;-0.31;87.46;100826.59;4985313;28;20030;-64
2022/11/19 02:32:00;;;;;;;;;;;;;;;-0.33;86.85;100826.06;4989137;28;20364;-64
2022/11/19 02:34:41;;;;;;;2.40;1.48;;;;;;;-0.42;87.58;100827.75;4991128;28;20381;-64
2022/11/19 02:37:15;;;;;;;1.88;1.17;;;;;;;-0.44;87.67;100826.44;4990152;28;20479;-64
2022/11/19 02:40:07;;;;;;;2.50;1.85;;;;;;;-0.44;87.62;100834.38;4990812;28;20038;-64
2022/11/19 02:42:54;;;;;;;2.20;1.52;;;;;;;-0.53;87.73;100828.91;4947365;28;20058;-64
2022/11/19 02:45:34;;;;;;;2.50;1.67;;;;;;;-0.53;87.60;100828.91;4951572;28;20543;-64
2022/11/19 02:48:09;;;;;;;1.38;1.27;;;;;;;-0.49;87.38;100835.22;4950370;28;20087;-64
2022/11/19 02:50:43;;;;;;;2.58;1.60;;;;;;;-0.48;87.26;100841.28;4935071;29;20050;-64
2022/11/19 02:53:09;;;;;;;1.67;1.38;;;;;;;-0.48;87.00;100839.44;4936068;29;20130;-64
2022/11/19 02:55:35;;;;;;;3.70;1.23;;;;;;;-0.42;86.96;100842.81;4929529;29;20058;-64
2022/11/19 03:06:37;;;;;;;2.33;1.52;;;;;;;-0.56;87.65;100840.03;4930282;29;20055;-64
2022/11/19 03:09:03;;;;;;;1.80;1.70;;;;;;;-0.58;87.50;100842.16;4935214;28;20495;-64
2022/11/19 03:11:31;;;;;;;0.93;0.88;;;;;;;-0.40;86.89;100838.03;4915587;28;20067;-64
2022/11/19 03:17:03;;;;;;;2.53;1.65;;;;;;;-0.53;86.67;100839.50;4949724;29;20560;-64
2022/11/19 03:19:36;;;;;;;4.85;1.83;;;;;;;-0.59;87.37;100840.59;4961355;28;20202;-64
2022/11/19 03:22:04;;;;;;;4.35;1.88;;;;;;;-0.59;87.03;100845.88;4991264;28;20109;-64
2022/11/19 03:24:35;;;;;;;1.27;0.80;;;;;;;-0.60;87.08;100849.56;4982189;28;20042;-64
2022/11/19 03:27:04;;;;;;;2.65;2.05;;;;;;;-0.63;86.76;100842.19;4991430;28;20030;-64
2022/11/19 03:29:34;;;;;;;4.03;1.67;;;;;;;-0.68;86.73;100844.91;4990437;28;20495;-64
2022/11/19 03:32:06;;;;;;;2.35;2.15;;;;;;;-0.71;87.18;100842.00;4988568;28;20022;-64
2022/11/19 03:34:33;;;;;;;2.30;1.55;;;;;;;-0.73;87.69;100844.91;4982682;28;20166;-64
2022/11/19 03:37:02;;;;;;;2.13;1.25;;;;;;;-0.74;87.24;100834.63;4987072;28;20030;-64
2022/11/19 03:39:28;;;;;;;1.73;1.23;;;;;;;-0.73;87.89;100842.25;4992352;28;20510;-64
2022/11/19 03:41:55;;;;;;;1.48;0.98;;;;;;;-0.71;87.99;100834.06;4984850;28;20117;-64
2022/11/19 03:44:38;;;;;;;2.72;1.67;;;;;;;-0.68;87.83;100828.22;4984857;28;20494;-64
2022/11/19 03:47:10;;;;;;;4.10;1.85;;;;;;;-0.72;88.00;100835.94;4990714;28;20129;-64
2022/11/19 03:49:40;;;;;;;1.95;1.67;;;;;;;-0.67;88.09;100832.44;4983753;28;20038;-64
2022/11/19 03:52:10;;;;;;;2.28;1.80;;;;;;;-0.67;87.78;100845.66;4991423;28;20027;-64
2022/11/19 03:54:38;;;;;;;2.15;1.05;;;;;;;-0.62;88.21;100837.72;4987817;28;20088;-64
2022/11/19 03:57:06;;;;;;;2.50;2.20;;;;;;;-0.67;88.31;100843.81;4983971;28;20438;-64
2022/11/19 03:59:33;;;;;;;1.48;1.38;;;;;;;-0.63;88.35;100844.84;5004806;28;20030;-64
2022/11/19 04:02:03;;;;;;;3.00;1.55;;;;;;;-0.64;88.14;100848.53;4984356;28;20077;-64
2022/11/19 04:04:35;;;;;;;2.67;2.00;;;;;;;-0.59;88.11;100850.38;4988458;28;20259;-62
2022/11/19 04:07:02;;;;;;;1.85;1.67;;;;;;;-0.59;87.96;100853.81;4990737;28;20101;-62
2022/11/19 04:09:28;;;;;;;1.67;1.05;;;;;;;-0.70;88.86;100849.66;4992258;28;20113;-64
2022/11/19 04:11:53;;;;;;;4.22;1.67;;;;;;;-0.65;88.79;100846.97;4984382;28;20022;-64
2022/11/19 04:14:19;;;;;;;2.15;1.95;;;;;;;-0.67;88.72;100845.66;4990390;28;20129;-64
2022/11/19 04:16:44;;;;;;;3.95;2.10;;;;;;;-0.71;88.65;100848.06;4988524;28;20077;-64
2022/11/19 04:19:10;;;;;;;2.85;1.45;;;;;;;-0.62;88.62;100851.69;4988783;28;20042;-64
2022/11/19 04:21:35;;;;;;;3.30;1.95;;;;;;;-0.61;88.67;100855.94;4988030;28;20030;-64
2022/11/19 04:24:01;;;;;;;1.73;1.00;;;;;;;-0.53;88.07;100852.72;4990830;28;20475;-64
2022/11/19 04:26:26;;;;;;;2.65;1.60;;;;;;;-0.64;88.32;100848.53;4991805;28;20471;-64
2022/11/19 04:28:52;;;;;;;1.48;1.30;;;;;;;-0.65;88.52;100846.19;4989316;28;20042;-64
2022/11/19 04:31:17;;;;;;;4.32;2.30;;;;;;;-0.69;88.70;100845.94;4989590;28;20034;-64
2022/11/19 04:33:42;;;;;;;2.85;1.65;;;;;;;-0.62;88.43;100856.22;4984657;28;20113;-64
2022/11/19 04:36:08;;;;;;;1.92;1.50;;;;;;;-0.60;88.93;100840.88;4989380;28;20073;-64
2022/11/19 04:38:34;;;;;;;2.28;1.23;;;;;;;-0.46;88.02;100853.16;4989941;28;20042;-64
2022/11/19 04:40:59;;;;;;;2.25;1.63;;;;;;;-0.39;87.66;100848.38;4985275;28;20027;-64
2022/11/19 04:43:25;;;;;;;1.48;1.38;;;;;;;-0.40;88.01;100848.63;4989059;28;20053;-64
2022/11/19 04:45:50;;;;;;;2.03;1.10;;;;;;;-0.48;87.94;100839.44;4989016;28;20061;-64
2022/11/19 04:48:16;;;;;;;2.58;1.17;;;;;;;-0.49;88.10;100840.50;4984005;28;20031;-64
2022/11/19 04:50:41;;;;;;;1.92;1.60;;;;;;;-0.47;88.11;100848.97;4990311;28;20515;-64
2022/11/19 04:53:07;;;;;;;2.15;1.20;;;;;;;-0.45;88.08;100846.03;4990833;28;20053;-64
2022/11/19 04:55:32;;;;;;;7.57;1.63;;;;;;;-0.48;87.78;100836.78;4990842;28;20046;-64
2022/11/19 04:57:58;;;;;;;1.55;1.45;;;;;;;-0.50;88.25;100841.56;4986578;28;20049;-64
2022/11/19 05:00:23;;;;;;;4.38;1.67;;;;;;;-0.49;88.49;100840.50;4989789;28;20061;-64
2022/11/19 05:02:49;;;;;;;2.38;2.17;;;;;;;-0.43;88.68;100834.13;4985119;28;20499;-64
2022/11/19 05:05:14;;;;;;;3.65;1.38;;;;;;;-0.27;87.67;100838.19;4998764;28;20038;-64
2022/11/19 05:07:39;;;;;;;1.85;1.65;;;;;;;-0.39;87.66;100843.09;4986256;28;20038;-64
2022/11/19 05:10:07;;;;;;;4.00;1.80;;;;;;;-0.37;87.87;100835.63;4983368;28;20035;-64
2022/11/19 05:12:33;;;;;;;1.10;1.02;;;;;;;-0.28;87.82;100841.13;4986072;28;20052;-64
2022/11/19 05:14:58;;;;;;;1.88;1.48;;;;;;;-0.42;87.01;100843.63;4985151;28;20030;-64
2022/11/19 05:17:23;;;;;;;2.35;1.38;;;;;;;-0.47;87.39;100840.22;4987078;28;20447;-64
2022/11/19 05:19:49;;;;;;;1.92;1.55;;;;;;;-0.29;87.70;100840.31;4987070;28;20549;-64
2022/11/19 05:22:14;;;;;;;1.75;1.63;;;;;;;-0.32;87.38;100840.09;4990632;28;20121;-64
2022/11/19 05:24:40;;;;;;;3.75;1.95;;;;;;;-0.27;87.42;100837.44;4990450;28;20026;-64
2022/11/19 05:27:06;;;;;;;2.78;1.58;;;;;;;-0.28;87.73;100835.84;4983928;28;20052;-64
2022/11/19 05:29:31;;;;;;;4.07;1.40;;;;;;;-0.31;88.67;100847.75;4983241;28;20491;-64
2022/11/19 05:31:57;;;;;;;1.33;1.23;;;;;;;-0.18;88.47;100841.84;4988461;28;20113;-63
2022/11/19 05:34:22;;;;;;;5.03;1.58;;;;;;;-0.16;88.99;100838.91;4987597;28;20073;-63
2022/11/19 05:36:47;;;;;;;1.13;1.00;;;;;;;-0.11;89.24;100842.28;4988330;28;20093;-63
2022/11/19 05:39:13;;;;;;;2.80;1.27;;;;;;;-0.10;89.51;100843.84;4990032;28;20065;-63
2022/11/19 05:41:39;;;;;;;3.90;1.50;;;;;;;-0.07;89.85;100853.91;4988438;28;20073;-63
2022/11/19 05:44:04;;;;;;;1.77;1.33;;;;;;;0.00;89.36;100841.13;4990221;28;20093;-63
2022/11/19 05:46:30;;;;;;;4.97;1.63;;;;;;;0.09;89.69;100845.81;4984841;28;20041;-63
2022/11/19 05:48:55;;;;;;;1.55;1.45;;;;;;;0.21;89.27;100849.66;5003409;28;20109;-63
2022/11/19 05:51:21;;;;;;;2.10;1.70;;;;;;;0.26;89.27;100840.84;4985321;28;20085;-62
2022/11/19 05:53:46;;;;;;;2.60;1.35;;;;;;;0.30;89.77;100849.81;4981373;28;20084;-63
2022/11/19 05:56:12;;;;;;;1.48;1.38;;;;;;;0.35;89.42;100842.59;4989819;28;20048;-63
2022/11/19 05:58:37;;;;;;;1.77;1.48;;;;;;;0.39;89.84;100856.06;4980463;28;20041;-63
2022/11/19 06:01:03;;;;;;;2.42;1.40;;;;;;;0.46;89.23;100856.53;4985472;28;20045;-63
2022/11/19 06:03:29;;;;;;;2.22;1.70;;;;;;;0.43;88.84;100857.88;4989446;28;20070;-63
2022/11/19 06:05:54;;;;;;;3.30;1.17;;;;;;;0.46;89.09;100852.03;4989264;28;20057;-63
2022/11/19 06:08:20;;;;;;;1.88;0.80;;;;;;;0.51;89.00;100849.31;4989798;28;20042;-63
2022/11/19 06:10:45;;;;;;;1.83;1.27;;;;;;;0.46;88.62;100851.22;4986987;28;20036;-63
2022/11/19 06:13:10;;;;;;;5.88;1.98;;;;;;;0.43;88.75;100843.84;4990165;28;20034;-63
2022/11/19 06:15:36;;;;;;;2.45;1.33;;;;;;;0.48;88.91;100838.50;4989277;28;20096;-63
2022/11/19 06:18:02;;;;;;;2.88;1.90;;;;;;;0.48;88.14;100838.50;4991052;28;20538;-63
2022/11/19 06:20:27;;;;;;;3.90;1.25;;;;;;;0.41;88.70;100844.13;4989458;28;20035;-63
2022/11/19 06:22:52;;;;;;;1.92;1.67;;;;;;;0.34;88.27;100834.94;4989173;28;20034;-63
2022/11/19 06:25:18;;;;;;;3.15;1.92;;;;;;;0.37;88.25;100852.94;4984714;28;20522;-63
2022/11/19 06:27:43;;;;;;;6.10;1.15;;;;;;;0.32;88.53;100851.13;4990473;28;20495;-63
2022/11/19 06:30:10;;;;;;;1.73;1.33;;;;;;;0.32;88.76;100848.47;4990824;28;20041;-63
2022/11/19 06:32:35;;;;;;;2.33;1.48;;;;;;;0.23;89.15;100852.00;4990954;28;20557;-63
2022/11/19 06:35:00;;;;;;;1.90;1.50;;;;;;;0.22;89.64;100867.09;4991474;28;20069;-63
2022/11/19 06:37:26;;;;;;;3.78;1.13;;;;;;;0.25;89.39;100865.75;4991419;28;20030;-63
2022/11/19 06:39:53;;;;;;;4.53;1.92;;;;;;;0.22;89.80;100869.75;4992515;28;20093;-63
2022/11/19 06:42:36;;;;;;;2.85;2.10;;;;;;;0.30;89.78;100847.97;4975251;28;20392;-63
2022/11/19 06:45:07;;;;;;;4.75;1.88;;;;;;;0.32;89.39;100840.53;4989358;28;20046;-63
2022/11/19 06:47:32;;;;;;;1.67;1.58;;;;;;;0.36;89.42;100838.09;4992565;28;20038;-63
2022/11/19 06:49:58;;;;;;;1.52;1.40;;;;;;;0.40;88.74;100847.84;4972839;28;20049;-63
2022/11/19 06:52:24;;;;;;;5.53;2.28;;;;;;;0.35;88.99;100847.13;4988588;28;20398;-63
2022/11/19 06:54:50;;;;;;;1.63;1.48;;;;;;;0.35;89.01;100857.72;4992629;28;20042;-63
2022/11/19 06:57:16;;;;;;;2.42;1.52;;;;;;;0.32;88.44;100855.63;4974290;28;20046;-63
2022/11/19 06:59:41;;;;;;;1.85;1.48;;;;;;;0.27;88.96;100853.03;4987352;28;20026;-63
2022/11/19 07:02:09;;;;;;;3.75;2.17;;;;;;;0.30;89.18;100855.09;4981935;28;20423;-63
2022/11/19 07:04:35;;;;;;;3.60;2.35;;;;;;;0.43;88.50;100859.72;4986853;28;20041;-63
2022/11/19 07:07:00;;;;;;;0.95;0.93;;;;;;;0.47;88.57;100848.28;4985215;28;20510;-63
2022/11/19 07:09:25;;;;;;;3.50;1.67;;;;;;;0.49;88.07;100843.50;4999036;28;20042;-63
2022/11/19 07:11:51;;;;;;;1.45;1.27;;;;;;;0.53;88.28;100846.38;4983033;28;20027;-63
2022/11/19 07:14:16;;;;;;;2.42;1.80;;;;;;;0.48;87.83;100841.16;4990788;28;20034;-63
2022/11/19 07:16:42;;;;;;;14.48;2.80;;;;;;;0.49;88.26;100840.84;4990273;28;20046;-63
2022/11/19 07:19:08;;;;;;;2.58;1.40;;;;;;;0.50;88.42;100846.94;4991498;28;20045;-63
2022/11/19 07:21:33;;;;;;;4.93;2.08;;;;;;;0.51;87.88;100845.84;4988492;28;20073;-63
2022/11/19 07:24:01;;;;;;;5.07;2.42;;;;;;;0.55;88.26;100854.81;4992342;28;20034;-63
2022/11/19 07:26:30;;;;;;;6.15;2.70;;;;;;;0.49;88.51;100845.34;4991717;28;20034;-63
2022/11/19 07:28:56;;;;;;;8.52;2.50;;;;;;;0.64;88.13;100851.25;4974158;28;20034;-63
2022/11/19 07:31:23;;;;;;;7.20;2.40;;;;;;;0.76;88.13;100849.00;4992410;28;20037;-63
2022/11/19 07:33:49;;;;;;;3.50;2.60;;;;;;;0.85;87.45;100855.22;4975044;28;20094;-63
2022/11/19 07:36:14;;;;;;;4.38;2.28;;;;;;;0.82;88.05;100845.22;4980561;28;20449;-63
2022/11/19 07:38:40;;;;;;;6.97;2.47;;;;;;;0.86;88.09;100840.13;4988573;28;20486;-63
2022/11/19 07:42:47;;;;;;;4.32;2.60;;;;;;;0.92;88.34;100841.63;4985086;28;20553;-63
2022/11/19 07:43:51;;;;;;;6.13;2.70;;;;;;;0.97;88.89;100836.25;4987479;28;20038;-63
2022/11/19 07:46:16;;;;;;;3.10;2.22;;;;;;;1.08;88.49;100839.56;4991919;28;20530;-63
2022/11/19 07:48:41;;;;;;;4.65;2.17;;;;;;;1.18;88.63;100837.53;4986454;28;20434;-63
2022/11/19 07:51:07;;;;;;;5.30;2.30;;;;;;;1.19;88.78;100836.47;4973884;28;20448;-63
2022/11/19 07:53:32;;;;;;;3.40;1.77;;;;;;;1.23;88.57;100834.03;4992044;28;20038;-63
2022/11/19 07:56:01;;;;;;;5.45;2.95;;;;;;;1.26;89.05;100836.91;4989937;28;20038;-63
2022/11/19 07:58:27;;;;;;;6.10;2.50;;;;;;;1.28;88.71;100829.44;4985767;28;20030;-63
2022/11/19 08:00:52;;;;;;;4.90;2.47;;;;;;;1.43;89.10;100831.09;4982778;28;20089;-63
2022/11/19 08:03:18;;;;;;;2.30;2.10;;;;;;;1.48;88.74;100826.47;5018473;22;20125;-69
2022/11/19 08:05:44;;;;;;;6.15;2.90;;;;;;;1.55;88.92;100836.72;5005505;28;20030;-68
2022/11/19 08:08:09;;;;;;;3.78;2.03;;;;;;;1.60;89.05;100831.34;5009664;28;20022;-67
2022/11/19 08:10:35;;;;;;;3.47;1.52;;;;;;;1.60;89.34;100840.09;5001935;28;20081;-68
2022/11/19 08:13:03;;;;;;;4.00;2.92;;;;;;;1.78;89.31;100838.47;4993574;28;20034;-67
2022/11/19 08:15:31;;;;;;;2.63;1.83;;;;;;;1.91;89.54;100835.06;4990011;28;20042;-69
2022/11/19 08:18:12;;;;;;;1.42;1.25;;;;;;;2.04;89.27;100838.78;4981379;28;20173;-68
2022/11/19 08:20:47;;;;;;;2.63;2.00;;;;;;;2.15;88.99;100834.88;4985922;28;20088;-67
2022/11/19 08:23:13;;;;;;;5.40;1.90;;;;;;;2.21;89.40;100839.00;4991410;28;20061;-69
2022/11/19 08:25:41;;;;;;;10.30;2.33;;;;;;;2.33;89.22;100839.31;4991707;28;20034;-70
2022/11/19 08:28:07;;;;;;;3.75;2.13;;;;;;;2.40;88.66;100831.75;4989260;28;20034;-69
2022/11/19 08:30:33;;;;;;;1.63;1.52;;;;;;;2.46;88.81;100841.16;4982328;28;20096;-69
2022/11/19 08:32:59;;;;;;;3.63;2.13;;;;;;;2.51;88.49;100844.53;4986888;28;20042;-69
2022/11/19 08:35:24;;;;;;;3.70;1.95;;;;;;;2.56;88.47;100839.13;4984656;28;20116;-70
2022/11/19 08:37:50;;;;;;;2.85;2.05;;;;;;;2.62;88.57;100843.25;4989404;28;20575;-68
2022/11/19 08:40:16;;;;;;;1.55;1.45;;;;;;;2.68;88.49;100846.59;4989652;28;20046;-69
2022/11/19 08:43:00;;;;;;;3.22;2.42;;;;;;;2.75;88.25;100844.31;4972895;28;20049;-67
2022/11/19 08:45:33;;;;;;;3.70;2.60;;;;;;;2.84;87.99;100842.53;4975250;28;20022;-69
2022/11/19 08:48:01;;;;;;;10.32;1.90;;;;;;;2.90;87.90;100848.53;4979249;28;20694;-69
2022/11/19 08:50:28;;;;;;;2.60;1.90;;;;;;;2.93;87.80;100847.91;4987986;28;20067;-69
2022/11/19 08:53:04;;;;;;;2.50;1.80;;;;;;;2.98;87.92;100843.28;4984997;28;20124;-69
2022/11/19 08:55:30;;;;;;;2.33;2.10;;;;;;;3.03;88.00;100840.53;4985597;28;20077;-69
2022/11/19 08:58:03;;;;;;;2.90;2.30;;;;;;;3.08;87.92;100840.41;4989781;28;20034;-69
2022/11/19 09:00:30;;;;;;;3.47;2.90;;;;;;;3.14;87.70;100839.19;4984974;28;21047;-69
2022/11/19 09:02:55;;;;;;;6.43;2.63;;;;;;;3.21;87.81;100836.94;4985977;28;20034;-69
2022/11/19 09:05:21;;;;;;;3.35;1.88;;;;;;;3.32;87.50;100843.59;4984502;28;20398;-68
2022/11/19 09:07:47;;;;;;;7.72;2.42;;;;;;;3.37;87.56;100835.47;4986411;28;20038;-68
2022/11/19 09:10:12;;;;;;;6.85;2.97;;;;;;;3.52;87.69;100837.75;4986546;28;20125;-68
2022/11/19 09:12:38;;;;;;;4.75;2.20;;;;;;;3.67;87.60;100828.63;4990470;28;20034;-69
2022/11/19 09:15:04;;;;;;;4.95;2.90;;;;;;;3.90;87.85;100832.03;4990791;28;20111;-69
2022/11/19 09:17:29;;;;;;;3.03;2.00;;;;;;;4.13;87.41;100833.56;4986900;28;20077;-69
2022/11/19 09:19:54;;;;;;;5.03;2.13;;;;;;;4.35;87.54;100836.19;4990768;28;20046;-68
2022/11/19 09:22:23;;;;;;;3.83;2.00;;;;;;;4.50;86.86;100825.88;4990192;28;20028;-68
2022/11/19 09:24:49;;;;;;;2.28;1.85;;;;;;;4.63;86.12;100828.75;4986484;28;20026;-68
2022/11/19 09:27:14;;;;;;;4.68;1.98;;;;;;;4.78;85.83;100828.28;4987332;28;20031;-69
2022/11/19 09:29:40;;;;;;;5.80;2.60;;;;;;;4.92;85.39;100829.72;4968776;28;20043;-68
2022/11/19 09:32:05;;;;;;;7.45;2.80;;;;;;;5.02;84.49;100826.75;4983300;28;20042;-68
2022/11/19 09:34:31;;;;;;;2.70;2.05;;;;;;;5.01;84.26;100835.88;4978304;28;20097;-68
2022/11/19 09:36:57;;;;;;;6.05;2.30;;;;;;;5.07;83.77;100839.91;4965898;28;20470;-68
2022/11/19 09:39:23;;;;;;;3.42;2.55;;;;;;;5.08;82.97;100835.38;4958253;28;20522;-69
2022/11/19 09:41:52;;;;;;;3.13;2.08;;;;;;;4.98;83.48;100839.13;4988766;28;20061;-68
2022/11/19 09:44:38;;;;;;;4.43;2.30;;;;;;;5.06;83.35;100843.69;4980468;28;20391;-68
2022/11/19 09:47:22;;;;;;;3.03;1.88;;;;;;;5.08;83.21;100844.19;4980938;28;20053;-68
2022/11/19 09:50:01;;;;;;;3.05;1.67;;;;;;;5.13;83.56;100840.56;4986322;28;20086;-68
2022/11/19 09:52:29;;;;;;;4.55;2.40;;;;;;;5.19;83.03;100841.97;4965024;28;20138;-69
2022/11/19 09:54:56;;;;;;;6.22;2.60;;;;;;;5.30;83.20;100841.34;4992395;28;20042;-68
2022/11/19 09:57:41;;;;;;;4.03;2.75;;;;;;;5.33;83.05;100845.28;4988258;28;20038;-69
2022/11/19 10:00:08;;;;;;;3.40;2.15;;;;;;;5.39;82.53;100842.16;4973527;28;20499;-69
2022/11/19 10:02:38;;;;;;;5.40;2.45;;;;;;;5.46;82.63;100839.78;4983238;28;20507;-69
2022/11/19 10:05:07;;;;;;;3.95;1.98;;;;;;;5.48;82.45;100842.13;4985809;28;20043;-69
2022/11/19 10:08:34;;;;;;;2.85;2.13;;;;;;;5.50;81.82;100848.72;4987756;28;20033;-68
2022/11/19 10:11:18;;;;;;;5.75;2.25;;;;;;;5.48;81.87;100840.25;4964622;28;20034;-69
2022/11/19 10:14:14;;;;;;;4.72;2.50;;;;;;;5.43;81.96;100839.63;4871473;28;20061;-70
2022/11/19 10:17:08;;;;;;;2.75;1.95;;;;;;;5.45;82.15;100842.75;4910907;28;20039;-68
2022/11/19 10:19:49;;;;;;;4.20;2.47;;;;;;;5.50;82.18;100834.59;4843941;28;20039;-68
2022/11/19 10:22:38;;;;;;;3.22;1.95;;;;;;;5.52;82.30;100840.38;4868839;28;22513;-67
2022/11/19 10:25:09;;;;;;;3.75;2.20;;;;;;;5.55;82.17;100828.31;4839475;28;20041;-67
2022/11/19 10:27:40;;;;;;;;;;;;;;;5.55;82.71;100829.09;4846553;28;20125;-67
2022/11/19 10:30:13;;;;;;;2.15;1.85;;;;;;;5.59;82.42;100829.25;4870733;28;20617;-68
2022/11/19 10:32:43;;;;;;;4.25;2.42;;;;;;;5.72;83.11;100823.72;4971414;28;20388;-68
2022/11/19 10:35:20;;;;;;;4.75;2.33;;;;;;;5.92;82.38;100825.72;4993295;28;20490;-70
2022/11/19 10:37:58;;;;;;;6.35;1.50;;;;;;;6.26;81.52;100816.81;4989395;28;20046;-69
2022/11/19 10:40:32;;;;;;;5.85;3.05;;;;;;;6.20;81.80;100823.44;4972656;28;20061;-67
2022/11/19 10:43:31;;;;;;;4.50;2.67;;;;;;;6.16;81.96;100817.16;4983075;28;20050;-67
2022/11/19 10:45:59;;;;;;;3.42;2.05;;;;;;;6.17;81.33;100821.41;4990417;28;20038;-69
2022/11/19 10:48:40;;;;;;;4.95;2.55;;;;;;;6.12;80.84;100811.66;4981442;28;21183;-67
2022/11/19 10:51:33;;;;;;;4.05;1.88;;;;;;;6.11;80.98;100809.31;4976851;28;20042;-68
2022/11/19 10:54:03;;;;;;;4.03;2.10;;;;;;;6.12;81.34;100811.66;4971429;28;20128;-69
2022/11/19 10:56:41;;;;;;;5.65;2.60;;;;;;;6.09;81.42;100809.66;4988506;28;20038;-68
2022/11/19 10:59:17;;;;;;;5.50;2.85;;;;;;;6.13;81.55;100805.22;4984679;28;20043;-69
2022/11/19 11:01:46;;;;;;;3.53;2.50;;;;;;;6.13;82.00;100805.22;4987901;28;20521;-69
2022/11/19 11:04:19;;;;;;;2.50;2.03;;;;;;;6.15;82.42;100799.56;4989527;28;20072;-69
2022/11/19 11:07:04;;;;;;;2.42;2.20;;;;;;;6.13;81.97;100793.75;4991586;28;20042;-68
2022/11/19 11:09:36;;;;;;;2.65;1.95;;;;;;;6.11;82.41;100786.06;4966810;28;20096;-69
2022/11/19 11:15:20;;;;;;;1.65;1.45;;;;;;;6.15;82.14;100776.28;4984656;28;20048;-68
2022/11/19 11:17:47;;;;;;;3.50;2.30;;;;;;;6.16;82.99;100783.19;4986260;28;20038;-70
2022/11/19 11:20:12;;;;;;;2.63;1.92;;;;;;;6.21;83.44;100779.56;4989399;28;20038;-68
2022/11/19 11:22:38;;;;;;;2.20;1.80;;;;;;;6.24;83.49;100768.22;4988799;28;20042;-69
2022/11/19 11:25:19;;;;;;;3.17;2.17;;;;;;;6.26;82.84;100771.34;4990239;28;20590;-70
2022/11/19 11:27:44;;;;;;;3.15;1.77;;;;;;;6.28;82.90;100764.59;4989936;28;20050;-68
2022/11/19 11:30:10;;;;;;;2.88;1.25;;;;;;;6.29;83.37;100760.03;4981900;28;20589;-69
2022/11/19 11:32:36;;;;;;;3.00;1.67;;;;;;;6.33;83.57;100763.59;4986241;28;20046;-68
2022/11/19 11:35:02;;;;;;;2.35;1.77;;;;;;;6.41;83.96;100751.31;4975360;28;20034;-70
2022/11/19 11:37:28;;;;;;;1.63;1.20;;;;;;;6.45;83.10;100753.00;4982572;28;20034;-68
2022/11/19 11:39:55;;;;;;;2.20;1.25;;;;;;;6.47;83.55;100753.44;4972066;28;20023;-69
2022/11/19 11:42:25;;;;;;;2.15;1.60;;;;;;;6.44;83.42;100745.28;4974044;28;20061;-68
2022/11/19 11:44:57;;;;;;;1.98;1.25;;;;;;;6.48;83.63;100746.22;4966446;28;20034;-67
2022/11/19 11:47:29;;;;;;;6.68;1.70;;;;;;;6.46;83.55;100735.84;4968164;28;20038;-68
2022/11/19 11:50:06;;;;;;;2.08;1.35;;;;;;;6.51;83.26;100740.19;4980995;28;20573;-68
2022/11/19 11:52:45;;;;;;;1.85;1.00;;;;;;;6.53;83.48;100732.63;4973835;28;20113;-69
2022/11/19 11:55:24;;;;;;;2.33;1.60;;;;;;;6.59;83.28;100729.47;4978114;28;20403;-70
2022/11/19 11:57:54;;;;;;;1.20;1.10;;;;;;;6.62;82.84;100730.72;4980017;28;20120;-69